Time;durP1;ratioP1;P1;durP2;ratioP2;P2;SDS_P1;SDS_P2;PMS_P1;PMS_P2;Temp;Humidity;BMP_temperature;BMP_pressure;BME280_temperature;BME280_humidity;BME280_pressure;Samples;Min_cycle;Max_cycle;Signal;HPM_P1;HPM_P2
2023/01/03 00:01:32;;;;;;;3.22;1.92;;;17.50;99.90;;;;;;4201807;28;20555;-71
2023/01/03 00:03:35;;;;;;;3.25;1.80;;;17.50;99.90;;;;;;4211671;28;20240;-71
2023/01/03 00:05:37;;;;;;;3.25;1.73;;;17.40;99.90;;;;;;4206262;28;20260;-71
2023/01/03 00:07:39;;;;;;;2.40;1.73;;;17.40;99.90;;;;;;4213621;28;20218;-71
2023/01/03 00:09:42;;;;;;;2.65;1.70;;;17.40;99.90;;;;;;4201430;28;20667;-71
2023/01/03 00:14:07;;;;;;;2.60;1.77;;;17.40;99.90;;;;;;4205849;28;20611;-71
2023/01/03 00:16:16;;;;;;;2.80;1.80;;;17.50;99.90;;;;;;4213162;28;20219;-71
2023/01/03 00:18:18;;;;;;;2.40;1.70;;;17.40;99.90;;;;;;4199795;28;20640;-71
2023/01/03 00:20:21;;;;;;;3.47;2.42;;;17.40;99.90;;;;;;4196494;28;20211;-71
2023/01/03 00:22:23;;;;;;;2.10;1.80;;;17.40;99.90;;;;;;4200567;28;20659;-71
2023/01/03 00:24:26;;;;;;;3.10;2.30;;;17.40;99.90;;;;;;4213060;28;20236;-71
2023/01/03 00:26:32;;;;;;;2.83;1.85;;;17.40;99.90;;;;;;4209596;28;20284;-71
2023/01/03 00:28:35;;;;;;;2.95;1.80;;;17.40;99.90;;;;;;4201311;28;20214;-71
2023/01/03 00:30:38;;;;;;;2.10;1.42;;;17.40;99.90;;;;;;4195993;28;20260;-71
2023/01/03 00:32:40;;;;;;;2.13;1.70;;;17.40;99.90;;;;;;4207318;28;20219;-71
2023/01/03 00:34:44;;;;;;;2.65;1.70;;;17.40;99.90;;;;;;4196643;28;20227;-71
2023/01/03 00:36:46;;;;;;;2.80;1.60;;;17.40;99.90;;;;;;4200429;28;20264;-71
2023/01/03 00:38:49;;;;;;;2.58;1.60;;;17.40;99.90;;;;;;4208710;28;20219;-71
2023/01/03 00:40:51;;;;;;;5.28;1.92;;;17.30;99.90;;;;;;4212342;28;20264;-71
2023/01/03 00:45:23;;;;;;;1.90;1.70;;;17.40;99.90;;;;;;4199590;28;20256;-71
2023/01/03 00:47:25;;;;;;;3.92;1.90;;;17.30;99.90;;;;;;4205677;28;20267;-71
2023/01/03 00:49:28;;;;;;;2.38;1.70;;;17.40;99.90;;;;;;4213183;28;20290;-71
2023/01/03 00:51:32;;;;;;;3.42;2.00;;;17.30;99.90;;;;;;4212179;28;20214;-71
2023/01/03 00:53:35;;;;;;;3.50;1.92;;;17.30;99.90;;;;;;4200124;28;20268;-71
2023/01/03 00:55:37;;;;;;;4.07;2.28;;;17.30;99.90;;;;;;4202213;28;20239;-71
2023/01/03 00:57:43;;;;;;;3.33;2.00;;;17.30;99.90;;;;;;4205633;28;20262;-71
2023/01/03 00:59:45;;;;;;;3.45;1.90;;;17.30;99.90;;;;;;4212099;28;20234;-71
2023/01/03 01:01:51;;;;;;;2.75;1.70;;;17.30;99.90;;;;;;4199632;28;20214;-71
2023/01/03 01:03:58;;;;;;;3.67;1.95;;;17.30;99.90;;;;;;4199910;28;20223;-71
2023/01/03 01:06:00;;;;;;;3.85;2.03;;;17.30;99.90;;;;;;4205430;28;20259;-71
2023/01/03 01:08:03;;;;;;;3.13;2.25;;;17.30;99.90;;;;;;4212539;28;20214;-71
2023/01/03 01:10:06;;;;;;;3.00;1.77;;;17.30;99.90;;;;;;4199811;28;20249;-71
2023/01/03 01:12:08;;;;;;;2.40;1.55;;;17.30;99.90;;;;;;4205406;28;20218;-71
2023/01/03 01:14:19;;;;;;;1.90;1.67;;;17.40;99.90;;;;;;4211695;28;20308;-71
2023/01/03 01:16:24;;;;;;;2.53;1.83;;;17.30;99.90;;;;;;4216828;28;21169;-71
2023/01/03 01:18:27;;;;;;;2.35;1.80;;;17.30;99.90;;;;;;4213936;28;20636;-71
2023/01/03 01:20:30;;;;;;;3.50;1.95;;;17.30;99.90;;;;;;4207506;28;20291;-71
2023/01/03 01:22:33;;;;;;;3.75;2.08;;;17.30;99.90;;;;;;4213208;28;20202;-71
2023/01/03 01:24:36;;;;;;;3.85;1.92;;;17.30;99.90;;;;;;4215155;28;20219;-71
2023/01/03 01:26:38;;;;;;;2.38;1.60;;;17.30;99.90;;;;;;4201092;28;20207;-71
2023/01/03 01:28:41;;;;;;;2.53;1.85;;;17.30;99.90;;;;;;4204743;28;20210;-71
2023/01/03 01:30:43;;;;;;;3.10;1.90;;;17.30;99.90;;;;;;4214495;28;20252;-71
2023/01/03 01:32:46;;;;;;;2.65;1.90;;;17.20;99.90;;;;;;4214960;28;20617;-71
2023/01/03 01:34:49;;;;;;;1.98;1.75;;;17.20;99.90;;;;;;4212106;28;20284;-71
2023/01/03 01:36:52;;;;;;;2.55;1.98;;;17.30;99.90;;;;;;4205597;28;20214;-71
2023/01/03 01:38:56;;;;;;;2.90;1.80;;;17.20;99.90;;;;;;4200834;28;20215;-71
2023/01/03 01:40:59;;;;;;;3.95;1.90;;;17.20;99.90;;;;;;4207110;28;20299;-71
2023/01/03 01:45:31;;;;;;;3.58;2.00;;;17.30;99.90;;;;;;4215227;28;20202;-71
2023/01/03 01:47:40;;;;;;;3.28;1.80;;;17.30;99.90;;;;;;4217351;28;20210;-71
2023/01/03 01:49:42;;;;;;;3.75;1.90;;;17.20;99.90;;;;;;4217843;28;20222;-71
2023/01/03 01:51:46;;;;;;;4.15;2.10;;;17.20;99.90;;;;;;4217220;28;20210;-71
2023/01/03 01:53:51;;;;;;;3.30;2.25;;;17.20;99.90;;;;;;4217281;28;20282;-71
2023/01/03 01:55:58;;;;;;;3.15;2.10;;;17.20;99.90;;;;;;4210293;28;20230;-71
2023/01/03 01:58:01;;;;;;;2.17;1.67;;;17.20;99.90;;;;;;4216064;28;20311;-71
2023/01/03 02:00:05;;;;;;;3.92;1.70;;;17.20;99.90;;;;;;4217827;28;20234;-71
2023/01/03 02:02:08;;;;;;;2.60;1.77;;;17.20;99.90;;;;;;4217192;28;20252;-71
2023/01/03 02:04:16;;;;;;;3.20;2.10;;;17.20;99.90;;;;;;4217919;28;20218;-71
2023/01/03 02:06:19;;;;;;;4.40;2.10;;;17.20;99.90;;;;;;4213297;28;20205;-71
2023/01/03 02:08:23;;;;;;;2.60;1.75;;;17.20;99.90;;;;;;4216920;28;20215;-71
2023/01/03 02:10:41;;;;;;;3.40;2.03;;;17.20;99.90;;;;;;4217677;28;20255;-71
2023/01/03 02:13:07;;;;;;;3.58;2.00;;;17.20;99.90;;;;;;4217993;28;20206;-71
2023/01/03 02:15:21;;;;;;;3.05;1.90;;;17.20;99.90;;;;;;4208481;28;20246;-71
2023/01/03 02:17:36;;;;;;;2.58;2.03;;;17.20;99.90;;;;;;4216994;28;20279;-71
2023/01/03 02:20:24;;;;;;;3.65;1.95;;;17.20;99.90;;;;;;4207479;28;20257;-71
2023/01/03 02:23:26;;;;;;;3.28;2.10;;;17.20;99.90;;;;;;4164333;28;20216;-71
2023/01/03 02:26:08;;;;;;;4.50;2.13;;;17.20;99.90;;;;;;4206874;28;20587;-71
2023/01/03 02:28:59;;;;;;;3.10;1.98;;;17.20;99.90;;;;;;4214554;28;20272;-71
2023/01/03 02:31:11;;;;;;;4.60;2.33;;;17.20;99.90;;;;;;4177679;28;20212;-71
2023/01/03 02:33:24;;;;;;;3.53;2.53;;;17.10;99.90;;;;;;4197786;28;20206;-71
2023/01/03 02:35:36;;;;;;;2.83;1.90;;;17.10;99.90;;;;;;4214365;28;20234;-71
2023/01/03 02:37:44;;;;;;;2.70;2.10;;;17.10;99.90;;;;;;4203543;28;20732;-71
2023/01/03 02:39:53;;;;;;;3.30;2.13;;;17.10;99.90;;;;;;4204468;28;20646;-71
2023/01/03 02:44:22;;;;;;;2.65;2.08;;;17.10;99.90;;;;;;4214244;28;20215;-71
2023/01/03 02:46:30;;;;;;;3.78;2.30;;;17.20;99.90;;;;;;4199300;28;20219;-71
2023/01/03 02:48:43;;;;;;;2.60;2.03;;;17.10;99.90;;;;;;4214415;28;20259;-71
2023/01/03 02:50:48;;;;;;;3.78;2.42;;;17.10;99.90;;;;;;4206223;28;20217;-71
2023/01/03 02:52:53;;;;;;;3.70;2.30;;;17.10;99.90;;;;;;4209808;28;20219;-71
2023/01/03 02:55:00;;;;;;;2.35;1.88;;;17.10;99.90;;;;;;4197642;28;20212;-71
2023/01/03 02:57:07;;;;;;;3.40;2.10;;;17.10;99.90;;;;;;4213277;28;20202;-71
2023/01/03 02:59:14;;;;;;;3.72;2.00;;;17.10;99.90;;;;;;4211772;28;20275;-71
2023/01/03 03:01:18;;;;;;;3.30;1.80;;;17.10;99.90;;;;;;4205851;28;20264;-71
2023/01/03 03:03:26;;;;;;;3.67;2.10;;;17.10;99.90;;;;;;4211676;28;20214;-71
2023/01/03 03:05:32;;;;;;;2.78;2.00;;;17.10;99.90;;;;;;4209086;28;20658;-71
2023/01/03 03:07:38;;;;;;;3.30;2.20;;;17.10;99.90;;;;;;4213638;28;20267;-71
2023/01/03 03:14:25;;;;;;;3.35;2.00;;;17.10;99.90;;;;;;4209059;28;20195;-71
2023/01/03 03:16:47;;;;;;;3.13;1.95;;;17.10;99.90;;;;;;4212382;28;20237;-71
2023/01/03 03:18:58;;;;;;;3.28;2.15;;;17.00;99.90;;;;;;4214201;28;20627;-71
2023/01/03 03:25:52;;;;;;;3.13;1.92;;;17.00;99.90;;;;;;4213334;28;20202;-71
2023/01/03 03:30:23;;;;;;;2.65;2.30;;;17.00;99.90;;;;;;4206190;28;20194;-71
2023/01/03 03:32:28;;;;;;;3.45;2.50;;;17.00;99.90;;;;;;4197733;28;20704;-71
2023/01/03 03:34:37;;;;;;;3.53;2.10;;;17.00;99.90;;;;;;4211188;28;20218;-71
2023/01/03 03:36:46;;;;;;;3.95;2.30;;;17.00;99.90;;;;;;4201218;28;20272;-71
2023/01/03 03:38:49;;;;;;;3.47;2.00;;;17.00;99.90;;;;;;4209499;28;20608;-71
2023/01/03 03:45:55;;;;;;;3.72;2.00;;;17.10;99.90;;;;;;4213763;28;20599;-71
2023/01/03 03:48:05;;;;;;;2.50;1.88;;;17.00;99.90;;;;;;4213717;28;20260;-71
2023/01/03 03:50:13;;;;;;;2.25;1.98;;;17.00;99.90;;;;;;4213568;28;20259;-71
2023/01/03 03:52:19;;;;;;;3.47;2.17;;;17.00;99.90;;;;;;4200322;28;20210;-71
2023/01/03 03:54:23;;;;;;;3.03;2.10;;;17.00;99.90;;;;;;4212531;28;20218;-71
2023/01/03 03:56:30;;;;;;;2.33;1.80;;;17.00;99.90;;;;;;4206582;28;20628;-71
2023/01/03 03:58:39;;;;;;;3.05;2.10;;;17.00;99.90;;;;;;4210534;28;20696;-71
2023/01/03 04:00:43;;;;;;;3.17;2.08;;;17.00;99.90;;;;;;4210091;28;20621;-71
2023/01/03 04:02:47;;;;;;;3.38;2.00;;;17.00;99.90;;;;;;4206047;28;20271;-71
2023/01/03 04:04:55;;;;;;;2.42;1.98;;;17.00;99.90;;;;;;4208661;28;20237;-71
2023/01/03 04:07:01;;;;;;;2.47;1.85;;;17.00;99.90;;;;;;4202308;28;20206;-71
2023/01/03 04:09:03;;;;;;;3.72;2.25;;;17.00;99.90;;;;;;4205393;28;20215;-71
2023/01/03 04:11:06;;;;;;;3.73;2.17;;;17.00;99.90;;;;;;4201015;28;20729;-71
2023/01/03 04:13:08;;;;;;;2.53;1.90;;;17.00;99.90;;;;;;4199605;28;20222;-71
2023/01/03 04:15:11;;;;;;;3.97;2.22;;;17.00;99.90;;;;;;4205327;28;20581;-71
2023/01/03 04:17:14;;;;;;;2.30;2.00;;;17.00;99.90;;;;;;4212249;28;20235;-71
2023/01/03 04:19:16;;;;;;;3.13;1.95;;;17.00;99.90;;;;;;4204637;28;20211;-71
2023/01/03 04:21:18;;;;;;;3.45;2.15;;;17.00;99.90;;;;;;4211492;28;20240;-71
2023/01/03 04:23:22;;;;;;;2.88;1.85;;;17.00;99.90;;;;;;4213008;28;20271;-71
2023/01/03 04:25:25;;;;;;;3.42;2.38;;;17.00;99.90;;;;;;4213211;28;20275;-71
2023/01/03 04:27:28;;;;;;;2.92;1.92;;;17.00;99.90;;;;;;4213106;28;20939;-70
2023/01/03 04:29:30;;;;;;;4.35;2.05;;;17.00;99.90;;;;;;4202400;28;20219;-71
2023/01/03 04:31:32;;;;;;;3.00;2.20;;;16.90;99.90;;;;;;4202231;28;20256;-71
2023/01/03 04:33:35;;;;;;;2.70;1.95;;;17.00;99.90;;;;;;4212363;28;20259;-71
2023/01/03 04:35:37;;;;;;;2.63;2.00;;;16.90;99.90;;;;;;4200106;28;20219;-71
2023/01/03 04:37:40;;;;;;;2.83;2.10;;;16.90;99.90;;;;;;4200716;28;20234;-71
2023/01/03 04:39:44;;;;;;;3.75;2.35;;;16.90;99.90;;;;;;4202274;28;20720;-71
2023/01/03 04:41:46;;;;;;;2.80;2.20;;;17.00;99.90;;;;;;4209901;28;20263;-71
2023/01/03 04:44:03;;;;;;;3.00;2.10;;;16.90;99.90;;;;;;4212531;28;20280;-71
2023/01/03 04:46:05;;;;;;;3.33;2.03;;;17.00;99.90;;;;;;4203879;28;20206;-71
2023/01/03 04:48:09;;;;;;;3.20;2.08;;;17.00;99.90;;;;;;4197589;28;20211;-71
2023/01/03 04:50:12;;;;;;;4.32;2.40;;;17.00;99.90;;;;;;4209773;28;20275;-71
2023/01/03 04:52:15;;;;;;;2.83;2.00;;;16.90;99.90;;;;;;4212313;28;20219;-71
2023/01/03 04:54:18;;;;;;;2.05;1.85;;;16.90;99.90;;;;;;4202513;28;20260;-71
2023/01/03 04:56:26;;;;;;;2.90;1.80;;;16.90;99.90;;;;;;4211765;28;20234;-71
2023/01/03 04:58:28;;;;;;;2.30;2.08;;;16.90;99.90;;;;;;4208738;28;20271;-71
2023/01/03 05:00:30;;;;;;;3.65;1.92;;;16.90;99.90;;;;;;4210646;28;20218;-71
2023/01/03 05:02:33;;;;;;;2.72;2.15;;;16.90;99.90;;;;;;4201991;28;20222;-71
2023/01/03 05:04:35;;;;;;;3.42;2.00;;;16.90;99.90;;;;;;4203794;28;20218;-71
2023/01/03 05:06:37;;;;;;;2.42;1.90;;;16.90;99.90;;;;;;4207783;28;20608;-71
2023/01/03 05:08:40;;;;;;;3.03;1.90;;;16.90;99.90;;;;;;4197284;28;20215;-71
2023/01/03 05:10:43;;;;;;;2.92;2.00;;;16.90;99.90;;;;;;4200521;28;20288;-71
2023/01/03 05:12:58;;;;;;;2.60;1.90;;;16.90;99.90;;;;;;4196332;28;20215;-71
2023/01/03 05:15:00;;;;;;;3.90;1.98;;;16.90;99.90;;;;;;4202411;28;20591;-71
2023/01/03 05:17:03;;;;;;;3.40;1.83;;;16.90;99.90;;;;;;4212471;28;20685;-71
2023/01/03 05:19:05;;;;;;;3.28;2.10;;;16.90;99.90;;;;;;4212010;28;20214;-71
2023/01/03 05:25:52;;;;;;;3.10;1.75;;;17.00;99.90;;;;;;4212522;28;20199;-71
2023/01/03 05:27:57;;;;;;;3.10;1.95;;;16.90;99.90;;;;;;4212486;28;20219;-70
2023/01/03 05:30:00;;;;;;;2.55;1.88;;;16.90;99.90;;;;;;4212448;28;20223;-71
2023/01/03 05:32:03;;;;;;;2.53;2.08;;;16.90;99.90;;;;;;4212590;28;20252;-71
2023/01/03 05:34:05;;;;;;;3.58;2.00;;;16.90;99.90;;;;;;4197245;28;20215;-71
2023/01/03 05:36:09;;;;;;;3.15;2.10;;;16.90;99.90;;;;;;4211148;28;20227;-71
2023/01/03 05:38:11;;;;;;;2.50;2.03;;;16.90;99.90;;;;;;4211371;28;20230;-71
2023/01/03 05:40:14;;;;;;;3.25;2.00;;;16.90;99.90;;;;;;4212557;28;20219;-71
2023/01/03 05:42:16;;;;;;;2.67;1.92;;;16.90;99.90;;;;;;4209019;28;20734;-71
2023/01/03 05:44:20;;;;;;;3.88;2.13;;;16.90;99.90;;;;;;4200148;28;20211;-71
2023/01/03 05:46:22;;;;;;;2.03;1.63;;;16.90;99.90;;;;;;4211332;28;20268;-71
2023/01/03 05:48:25;;;;;;;2.90;2.08;;;16.80;99.90;;;;;;4195813;28;20284;-71
2023/01/03 05:50:28;;;;;;;2.80;1.90;;;16.90;99.90;;;;;;4209538;28;20210;-71
2023/01/03 05:52:30;;;;;;;2.78;2.00;;;16.90;99.90;;;;;;4209375;28;20320;-71
2023/01/03 05:54:33;;;;;;;2.97;2.00;;;16.90;99.90;;;;;;4212324;28;20276;-71
2023/01/03 05:56:35;;;;;;;2.58;2.10;;;16.90;99.90;;;;;;4209273;28;20211;-70
2023/01/03 05:58:37;;;;;;;3.15;1.88;;;17.00;99.90;;;;;;4211722;28;20210;-71
2023/01/03 06:00:41;;;;;;;2.83;2.30;;;16.80;99.90;;;;;;4210242;28;20725;-71
2023/01/03 06:02:43;;;;;;;3.10;1.95;;;16.90;99.90;;;;;;4207552;28;20700;-71
2023/01/03 06:04:46;;;;;;;4.32;2.25;;;16.90;99.90;;;;;;4211222;28;20215;-70
2023/01/03 06:06:48;;;;;;;3.03;2.17;;;16.90;99.90;;;;;;4200646;28;20219;-71
2023/01/03 06:08:50;;;;;;;2.35;1.80;;;16.90;99.90;;;;;;4215215;28;20202;-71
2023/01/03 06:10:53;;;;;;;3.80;2.13;;;16.90;99.90;;;;;;4202357;28;20216;-71
2023/01/03 06:12:55;;;;;;;3.35;1.90;;;17.00;99.90;;;;;;4198893;28;20219;-71
2023/01/03 06:14:58;;;;;;;3.20;1.95;;;16.90;99.90;;;;;;4208662;28;20663;-71
2023/01/03 06:19:21;;;;;;;2.38;1.80;;;17.10;99.90;;;;;;4215341;28;20199;-71
2023/01/03 06:21:23;;;;;;;3.38;2.00;;;17.10;99.90;;;;;;4214891;28;20218;-71
2023/01/03 06:23:27;;;;;;;2.65;2.00;;;17.00;99.90;;;;;;4214928;28;20265;-71
2023/01/03 06:25:29;;;;;;;2.47;1.85;;;17.00;99.90;;;;;;4215024;28;20214;-71
2023/01/03 06:27:31;;;;;;;2.53;1.83;;;17.10;99.90;;;;;;4204489;28;20975;-71
2023/01/03 06:29:34;;;;;;;2.40;2.03;;;17.10;99.90;;;;;;4214758;28;20629;-71
2023/01/03 06:31:36;;;;;;;2.40;1.70;;;17.10;99.90;;;;;;4215054;28;20271;-71
2023/01/03 06:33:41;;;;;;;2.33;1.98;;;17.20;99.90;;;;;;4214953;28;20232;-71
2023/01/03 06:35:43;;;;;;;2.05;1.70;;;17.10;99.90;;;;;;4214566;28;20240;-74
2023/01/03 06:37:45;;;;;;;2.35;2.10;;;17.10;99.90;;;;;;4215034;28;20279;-74
2023/01/03 06:39:48;;;;;;;3.05;1.77;;;17.20;99.90;;;;;;4210471;28;20206;-74
2023/01/03 06:41:51;;;;;;;2.75;1.92;;;17.20;99.90;;;;;;4211109;28;20205;-74
2023/01/03 06:43:54;;;;;;;2.78;2.00;;;17.20;99.90;;;;;;4218093;28;20310;-74
2023/01/03 06:53:15;;;;;;;2.45;1.70;;;17.30;99.90;;;;;;4186423;28;20655;-71
2023/01/03 06:55:18;;;;;;;3.83;2.10;;;17.30;99.90;;;;;;4208834;28;20214;-71
2023/01/03 06:57:20;;;;;;;2.63;1.98;;;17.30;99.90;;;;;;4205020;28;20242;-71
2023/01/03 06:59:23;;;;;;;2.83;1.90;;;17.40;99.90;;;;;;4213860;28;20298;-71
2023/01/03 07:01:28;;;;;;;3.40;1.90;;;17.30;99.90;;;;;;4214896;28;20665;-71
2023/01/03 07:03:30;;;;;;;2.05;1.67;;;17.30;99.90;;;;;;4214756;28;20214;-71
2023/01/03 07:05:32;;;;;;;2.75;1.90;;;17.30;99.90;;;;;;4204478;28;20219;-71
2023/01/03 07:07:36;;;;;;;3.45;2.05;;;17.30;99.90;;;;;;4214585;28;20207;-71
2023/01/03 07:09:38;;;;;;;2.08;1.60;;;17.40;99.90;;;;;;4213998;28;20271;-71
2023/01/03 07:11:41;;;;;;;2.22;1.67;;;17.40;99.90;;;;;;4214044;28;20735;-71
2023/01/03 07:13:58;;;;;;;3.00;1.70;;;17.40;99.90;;;;;;4205359;28;20260;-71
2023/01/03 07:16:00;;;;;;;2.05;1.50;;;17.40;99.90;;;;;;4214415;28;20206;-71
2023/01/03 07:18:02;;;;;;;2.50;1.83;;;17.50;99.90;;;;;;4212896;28;20283;-71
2023/01/03 07:20:06;;;;;;;2.60;2.10;;;17.50;99.90;;;;;;4201927;28;20222;-71
2023/01/03 07:22:08;;;;;;;2.53;1.90;;;17.40;99.90;;;;;;4206850;28;20218;-71
2023/01/03 07:24:14;;;;;;;2.08;1.55;;;17.40;99.90;;;;;;4198482;28;20613;-71
2023/01/03 07:26:17;;;;;;;2.47;1.60;;;17.40;99.90;;;;;;4199606;28;20240;-71
2023/01/03 07:28:19;;;;;;;1.75;1.45;;;17.50;99.90;;;;;;4214130;28;20699;-71
2023/01/03 07:30:22;;;;;;;2.47;1.90;;;17.50;99.90;;;;;;4213200;28;20347;-71
2023/01/03 07:32:25;;;;;;;2.30;1.50;;;17.50;99.90;;;;;;4209530;28;20646;-71
2023/01/03 07:34:27;;;;;;;2.60;1.60;;;17.50;99.90;;;;;;4213351;28;20617;-71
2023/01/03 07:36:29;;;;;;;2.22;1.88;;;17.50;99.90;;;;;;4212074;28;20218;-71
2023/01/03 07:38:32;;;;;;;1.60;1.40;;;17.50;99.90;;;;;;4206593;28;20255;-71
2023/01/03 07:40:36;;;;;;;2.15;1.70;;;17.50;99.90;;;;;;4213904;28;20260;-71
2023/01/03 07:44:58;;;;;;;2.40;1.52;;;17.50;99.90;;;;;;4213644;28;20194;-71
2023/01/03 07:47:00;;;;;;;1.98;1.30;;;17.50;99.90;;;;;;4212841;28;20206;-71
2023/01/03 07:49:03;;;;;;;2.80;1.70;;;17.50;99.90;;;;;;4210743;28;20252;-71
2023/01/03 07:51:05;;;;;;;1.90;1.50;;;17.50;99.90;;;;;;4213168;28;20214;-71
2023/01/03 07:53:09;;;;;;;1.92;1.40;;;17.60;99.90;;;;;;4213548;28;20291;-71
2023/01/03 07:55:11;;;;;;;2.10;1.38;;;17.50;99.90;;;;;;4213147;28;20268;-71
2023/01/03 07:57:16;;;;;;;1.50;1.40;;;17.50;99.90;;;;;;4208884;28;20215;-71
2023/01/03 07:59:18;;;;;;;1.70;1.40;;;17.60;99.90;;;;;;4210504;28;20234;-71
2023/01/03 08:01:22;;;;;;;1.60;1.50;;;17.50;99.90;;;;;;4202751;28;20563;-71
2023/01/03 08:03:25;;;;;;;2.50;1.55;;;17.50;99.90;;;;;;4211549;28;20968;-71
2023/01/03 08:05:27;;;;;;;2.33;1.48;;;17.50;99.90;;;;;;4203983;28;20648;-71
2023/01/03 08:07:29;;;;;;;2.40;1.80;;;17.50;99.90;;;;;;4205258;28;20214;-71
2023/01/03 08:14:13;;;;;;;1.95;1.35;;;17.60;99.90;;;;;;4197663;28;20187;-70
2023/01/03 08:16:17;;;;;;;1.80;1.42;;;17.60;99.90;;;;;;4213032;28;20256;-71
2023/01/03 08:18:21;;;;;;;1.92;1.25;;;17.60;99.90;;;;;;4198611;28;20280;-71
2023/01/03 08:20:23;;;;;;;1.50;1.30;;;17.60;99.90;;;;;;4212047;28;20240;-70
2023/01/03 08:22:28;;;;;;;2.28;1.50;;;17.60;99.90;;;;;;4206470;28;20215;-70
2023/01/03 08:24:30;;;;;;;1.77;1.27;;;17.60;99.90;;;;;;4210971;28;20263;-70
2023/01/03 08:26:32;;;;;;;1.83;1.60;;;17.60;99.90;;;;;;4198108;28;20210;-71
2023/01/03 08:28:35;;;;;;;1.55;1.30;;;17.60;99.90;;;;;;4204416;28;20256;-71
2023/01/03 08:30:42;;;;;;;2.78;1.58;;;17.60;99.90;;;;;;4209988;28;20260;-71
2023/01/03 08:32:45;;;;;;;1.92;1.30;;;17.60;99.90;;;;;;4198349;28;20780;-71
2023/01/03 08:34:48;;;;;;;2.03;1.40;;;17.70;99.90;;;;;;4208360;28;20260;-71
2023/01/03 08:36:59;;;;;;;1.88;1.50;;;17.60;99.90;;;;;;4205141;28;20624;-71
2023/01/03 08:39:05;;;;;;;1.52;1.33;;;17.60;99.90;;;;;;4212842;28;20267;-71
2023/01/03 08:41:09;;;;;;;1.67;1.55;;;17.60;99.90;;;;;;4212975;28;20214;-71
2023/01/03 08:43:13;;;;;;;1.92;1.40;;;17.60;99.90;;;;;;4213179;28;20266;-71
2023/01/03 08:45:18;;;;;;;2.03;1.30;;;17.70;99.90;;;;;;4204492;28;20215;-71
2023/01/03 08:47:22;;;;;;;1.85;1.60;;;17.70;99.90;;;;;;4211631;28;20209;-71
2023/01/03 08:49:25;;;;;;;2.25;1.60;;;17.70;99.90;;;;;;4203380;28;20268;-71
2023/01/03 08:51:28;;;;;;;1.55;1.42;;;17.70;99.90;;;;;;4205750;28;20679;-71
2023/01/03 08:53:31;;;;;;;2.80;1.60;;;17.70;99.90;;;;;;4201819;28;20215;-71
2023/01/03 08:55:33;;;;;;;2.78;1.40;;;17.70;99.90;;;;;;4199254;28;20279;-71
2023/01/03 08:57:36;;;;;;;2.60;1.70;;;17.70;99.90;;;;;;4205654;28;20255;-71
2023/01/03 08:59:38;;;;;;;2.30;1.48;;;17.80;99.90;;;;;;4209801;28;20233;-71
2023/01/03 09:01:41;;;;;;;2.33;1.20;;;17.70;99.90;;;;;;4212487;28;20219;-71
2023/01/03 09:03:44;;;;;;;2.42;1.45;;;17.70;99.90;;;;;;4211993;28;20210;-71
2023/01/03 09:05:47;;;;;;;2.95;1.77;;;17.80;99.90;;;;;;4212265;28;20210;-71
2023/01/03 09:07:49;;;;;;;3.30;1.55;;;17.70;99.90;;;;;;4211965;28;20210;-71
2023/01/03 09:09:51;;;;;;;2.55;1.48;;;17.80;99.90;;;;;;4212372;28;20256;-71
2023/01/03 09:11:54;;;;;;;2.53;1.40;;;17.80;99.90;;;;;;4212482;28;20219;-71
2023/01/03 09:13:56;;;;;;;3.40;1.70;;;17.70;99.90;;;;;;4212500;28;20650;-71
2023/01/03 09:16:01;;;;;;;2.10;1.40;;;17.70;99.90;;;;;;4212274;28;20218;-71
2023/01/03 09:18:03;;;;;;;2.38;1.27;;;17.80;99.90;;;;;;4211913;28;20214;-71
2023/01/03 09:20:09;;;;;;;1.88;1.60;;;17.80;99.90;;;;;;4197372;28;20687;-71
2023/01/03 09:22:11;;;;;;;2.20;1.63;;;17.80;99.90;;;;;;4204442;28;20252;-71
2023/01/03 09:24:13;;;;;;;2.50;1.65;;;17.80;99.90;;;;;;4196166;28;20215;-71
2023/01/03 09:26:16;;;;;;;2.05;1.52;;;17.80;99.90;;;;;;4208194;28;20276;-71
2023/01/03 09:28:18;;;;;;;2.92;1.58;;;17.80;99.90;;;;;;4200869;28;20268;-71
2023/01/03 09:30:20;;;;;;;2.08;1.38;;;17.80;99.90;;;;;;4204625;28;20210;-71
2023/01/03 09:32:23;;;;;;;2.22;1.35;;;17.80;99.90;;;;;;4212410;28;20211;-71
2023/01/03 09:34:25;;;;;;;2.03;1.40;;;17.80;99.90;;;;;;4215102;28;21258;-71
2023/01/03 09:36:29;;;;;;;2.42;1.67;;;17.80;99.90;;;;;;4214452;28;20267;-71
2023/01/03 09:38:31;;;;;;;1.90;1.42;;;17.80;99.90;;;;;;4208498;28;20222;-71
2023/01/03 09:40:39;;;;;;;2.42;1.38;;;17.80;99.90;;;;;;4215541;28;20206;-71
2023/01/03 09:45:01;;;;;;;2.10;1.30;;;17.80;99.90;;;;;;4215713;28;20198;-71
2023/01/03 09:47:04;;;;;;;2.53;1.50;;;17.90;99.90;;;;;;4215498;28;20259;-71
2023/01/03 09:49:07;;;;;;;2.38;1.42;;;17.90;99.90;;;;;;4215721;28;20895;-71
2023/01/03 10:05:55;;;;;;;2.20;1.38;;;17.90;99.90;;;;;;4203631;28;20210;-71
2023/01/03 10:08:27;;;;;;;2.13;1.50;;;17.90;99.90;;;;;;4215499;28;20222;-71
2023/01/03 10:10:38;;;;;;;1.75;1.40;;;17.90;99.90;;;;;;4214381;28;20218;-71
2023/01/03 10:12:48;;;;;;;4.05;1.33;;;17.90;99.90;;;;;;4211758;28;20211;-71
2023/01/03 10:15:04;;;;;;;1.98;1.35;;;17.90;99.90;;;;;;4202695;28;20214;-71
2023/01/03 10:17:19;;;;;;;2.28;1.33;;;17.90;99.90;;;;;;4215280;28;20979;-71
2023/01/03 10:19:52;;;;;;;2.13;1.42;;;17.90;99.90;;;;;;4203062;28;20280;-71
2023/01/03 10:22:01;;;;;;;1.73;1.20;;;17.90;99.90;;;;;;4212329;28;20276;-71
2023/01/03 10:24:16;;;;;;;1.65;1.23;;;18.00;99.90;;;;;;4215299;28;20218;-71
2023/01/03 10:26:20;;;;;;;1.80;1.13;;;18.00;99.90;;;;;;4214181;28;20287;-71
2023/01/03 10:28:25;;;;;;;1.80;1.38;;;18.00;99.90;;;;;;4214117;28;20214;-71
2023/01/03 10:30:35;;;;;;;1.98;1.30;;;18.00;99.90;;;;;;4207815;28;20232;-71
2023/01/03 10:33:02;;;;;;;2.83;1.60;;;18.00;99.90;;;;;;4212190;28;20260;-71
2023/01/03 10:35:18;;;;;;;1.75;1.25;;;18.00;99.90;;;;;;4206286;28;20237;-71
2023/01/03 10:37:21;;;;;;;1.83;1.27;;;18.10;99.90;;;;;;4205847;28;20265;-71
2023/01/03 10:39:31;;;;;;;1.25;1.15;;;18.00;99.90;;;;;;4214544;28;20230;-71
2023/01/03 10:41:42;;;;;;;2.25;1.40;;;18.10;99.90;;;;;;4212357;28;20310;-71
2023/01/03 10:43:45;;;;;;;1.77;1.35;;;18.10;99.90;;;;;;4202280;28;20219;-71
2023/01/03 10:45:54;;;;;;;2.28;1.48;;;18.10;99.90;;;;;;4201119;28;20390;-71
2023/01/03 10:47:59;;;;;;;2.55;1.35;;;18.10;99.90;;;;;;4199716;28;20280;-71
2023/01/03 10:50:02;;;;;;;3.05;1.85;;;18.10;99.90;;;;;;4212492;28;20275;-71
2023/01/03 10:52:14;;;;;;;1.25;1.15;;;18.10;99.90;;;;;;4214420;28;20215;-71
2023/01/03 10:54:26;;;;;;;2.20;1.13;;;18.10;99.90;;;;;;4197814;28;20215;-71
2023/01/03 10:56:30;;;;;;;3.35;1.17;;;18.10;99.90;;;;;;4207093;28;20256;-71
2023/01/03 10:58:34;;;;;;;2.03;1.38;;;18.10;99.90;;;;;;4199657;28;20219;-71
2023/01/03 11:00:38;;;;;;;3.03;1.42;;;18.10;99.90;;;;;;4214224;28;20230;-71
2023/01/03 11:02:43;;;;;;;2.75;1.50;;;18.20;99.90;;;;;;4211046;28;20219;-71
2023/01/03 11:04:46;;;;;;;4.05;1.50;;;18.10;99.90;;;;;;4209767;28;20624;-71
2023/01/03 11:07:00;;;;;;;2.30;1.63;;;18.20;99.90;;;;;;4214798;28;20211;-71
2023/01/03 11:09:05;;;;;;;1.63;1.17;;;18.20;99.90;;;;;;4214408;28;20646;-71
2023/01/03 11:11:27;;;;;;;1.25;1.15;;;18.20;99.90;;;;;;4214648;28;20202;-71
2023/01/03 11:13:36;;;;;;;3.05;1.48;;;18.20;99.90;;;;;;4203805;28;20629;-71
2023/01/03 11:15:39;;;;;;;3.05;1.48;;;18.20;99.90;;;;;;4211385;28;20272;-71
2023/01/03 11:17:53;;;;;;;2.55;1.20;;;18.20;99.90;;;;;;4214514;28;20214;-71
2023/01/03 11:19:57;;;;;;;2.17;1.20;;;18.20;99.90;;;;;;4205167;28;20275;-70
2023/01/03 11:22:13;;;;;;;2.03;1.30;;;18.20;99.90;;;;;;4199898;28;20260;-70
2023/01/03 11:24:27;;;;;;;2.20;1.20;;;18.20;99.90;;;;;;4197676;28;20245;-70
2023/01/03 11:26:41;;;;;;;1.98;1.10;;;18.20;99.90;;;;;;4199824;28;20218;-70
2023/01/03 11:29:13;;;;;;;2.28;1.45;;;18.20;99.90;;;;;;4197617;28;20268;-70
2023/01/03 11:31:32;;;;;;;1.73;1.13;;;18.20;99.90;;;;;;4205523;28;20214;-70
2023/01/03 11:33:47;;;;;;;1.67;1.35;;;18.30;99.90;;;;;;4212667;28;20240;-70
2023/01/03 11:36:04;;;;;;;3.13;1.73;;;18.30;99.90;;;;;;4214251;28;20679;-74
2023/01/03 11:38:45;;;;;;;2.38;1.33;;;18.30;99.90;;;;;;4206106;28;20210;-74
2023/01/03 11:40:57;;;;;;;2.35;1.40;;;18.30;99.90;;;;;;4208510;28;20238;-74
2023/01/03 11:43:11;;;;;;;1.58;1.30;;;18.30;99.90;;;;;;4213459;28;20202;-74
2023/01/03 11:45:36;;;;;;;3.10;1.30;;;18.30;99.90;;;;;;4205551;28;20630;-74
2023/01/03 11:47:50;;;;;;;1.83;1.60;;;18.30;99.90;;;;;;4208990;28;20288;-74
2023/01/03 11:50:10;;;;;;;2.25;1.42;;;18.30;99.90;;;;;;4214082;28;20210;-74
2023/01/03 11:52:24;;;;;;;2.50;1.58;;;18.30;99.90;;;;;;4212274;28;20214;-74
2023/01/03 11:54:53;;;;;;;2.33;1.27;;;18.30;99.90;;;;;;4204847;28;20255;-74
2023/01/03 11:56:58;;;;;;;2.17;1.30;;;18.30;99.90;;;;;;4210512;28;20296;-74
2023/01/03 11:59:18;;;;;;;3.83;1.80;;;18.30;99.90;;;;;;4210833;28;20276;-74
2023/01/03 12:01:34;;;;;;;1.55;1.17;;;18.30;99.90;;;;;;4213859;28;20234;-74
2023/01/03 12:03:54;;;;;;;3.08;1.40;;;18.40;99.90;;;;;;4212780;28;20260;-74